Time;durP1;ratioP1;P1;durP2;ratioP2;P2;SDS_P1;SDS_P2;PMS_P1;PMS_P2;Temp;Humidity;BMP_temperature;BMP_pressure;BME280_temperature;BME280_humidity;BME280_pressure;Samples;Min_cycle;Max_cycle;Signal;HPM_P1;HPM_P2
2023/06/25 00:00:16;;;;;;;;;;;;;;;;;;5048684;28;20007;-68
2023/06/25 00:02:42;;;;;;;;;;;;;;;;;;5047226;28;20058;-68
2023/06/25 00:05:08;;;;;;;;;;;;;;;;;;5050565;28;19925;-68
2023/06/25 00:07:35;;;;;;;;;;;;;;;;;;5050652;28;19928;-68
2023/06/25 00:10:01;;;;;;;;;;;;;;;;;;5050655;28;19932;-67
2023/06/25 00:12:27;;;;;;;;;;;;;;;;;;5050634;28;20361;-66
2023/06/25 00:14:52;;;;;;;;;;;;;;;;;;5051690;28;19975;-65
2023/06/25 00:17:18;;;;;;;;;;;;;;;;;;5050754;28;19975;-66
2023/06/25 00:19:44;;;;;;;;;;;;;;;;;;5051655;28;19995;-65
2023/06/25 00:22:11;;;;;;;;;;;;;;;;;;5033198;28;20432;-66
2023/06/25 00:24:37;;;;;;;;;;;;;;;;;;5051616;28;19971;-66
2023/06/25 00:27:02;;;;;;;;;;;;;;;;;;5033489;28;19921;-66
2023/06/25 00:29:28;;;;;;;;;;;;;;;;;;5051484;28;19928;-66
2023/06/25 00:31:54;;;;;;;;;;;;;;;;;;5032681;28;19956;-65
2023/06/25 00:34:20;;;;;;;;;;;;;;;;;;5051408;28;19921;-68
2023/06/25 00:36:52;;;;;;;;;;;;;;;;;;5033276;28;20430;-68
2023/06/25 00:39:17;;;;;;;;;;;;;;;;;;5050250;28;19963;-68
2023/06/25 00:41:43;;;;;;;;;;;;;;;;;;5031988;28;19920;-65
2023/06/25 00:44:09;;;;;;;;;;;;;;;;;;5050757;28;19929;-66
2023/06/25 00:46:35;;;;;;;;;;;;;;;;;;5033316;28;19920;-66
2023/06/25 00:49:05;;;;;;;;;;;;;;;;;;5045049;28;20589;-66
2023/06/25 00:51:31;;;;;;;;;;;;;;;;;;5041814;28;19960;-66
2023/06/25 00:53:57;;;;;;;;;;;;;;;;;;5031518;28;19978;-66
2023/06/25 00:56:29;;;;;;;;;;;;;;;;;;5042708;28;19921;-66
2023/06/25 00:59:00;;;;;;;;;;;;;;;;;;5069488;28;19964;-61
2023/06/25 01:01:26;;;;;;;;;;;;;;;;;;5056935;28;19921;-60
2023/06/25 01:03:54;;;;;;;;;;;;;;;;;;5051911;28;19929;-60
2023/06/25 01:06:20;;;;;;;;;;;;;;;;;;5051729;28;19925;-61
2023/06/25 01:08:50;;;;;;;;;;;;;;;;;;5053597;28;19928;-61
2023/06/25 01:11:16;;;;;;;;;;;;;;;;;;5053429;28;19925;-66
2023/06/25 01:13:43;;;;;;;;;;;;;;;;;;5053965;28;19921;-66
2023/06/25 01:16:09;;;;;;;;;;;;;;;;;;5053912;28;19921;-66
2023/06/25 01:18:39;;;;;;;;;;;;;;;;;;5053693;28;19932;-66
2023/06/25 01:21:05;;;;;;;;;;;;;;;;;;5060742;22;20020;-62
2023/06/25 01:23:31;;;;;;;;;;;;;;;;;;5033885;28;20031;-62
2023/06/25 01:25:56;;;;;;;;;;;;;;;;;;5033971;28;19931;-62
2023/06/25 01:28:22;;;;;;;;;;;;;;;;;;5027948;28;19921;-62
2023/06/25 01:30:51;;;;;;;;;;;;;;;;;;5033788;28;20044;-63
2023/06/25 01:33:17;;;;;;;;;;;;;;;;;;5016497;28;19925;-63
2023/06/25 01:35:43;;;;;;;;;;;;;;;;;;5033185;28;19921;-63
2023/06/25 01:38:10;;;;;;;;;;;;;;;;;;5030014;28;20295;-64
2023/06/25 01:40:36;;;;;;;;;;;;;;;;;;5003480;28;19932;-63
2023/06/25 01:43:02;;;;;;;;;;;;;;;;;;5032678;28;19925;-63
2023/06/25 01:45:28;;;;;;;;;;;;;;;;;;5033697;28;19964;-63
2023/06/25 01:47:54;;;;;;;;;;;;;;;;;;5027101;28;19929;-63
2023/06/25 01:50:20;;;;;;;;;;;;;;;;;;4996493;28;19933;-63
2023/06/25 01:52:46;;;;;;;;;;;;;;;;;;5030605;28;19974;-63
2023/06/25 01:55:12;;;;;;;;;;;;;;;;;;5015740;28;19929;-63
2023/06/25 01:57:38;;;;;;;;;;;;;;;;;;5026135;28;19986;-63
2023/06/25 02:00:04;;;;;;;;;;;;;;;;;;4995987;28;20039;-63
2023/06/25 02:02:30;;;;;;;;;;;;;;;;;;5012982;28;19925;-64
2023/06/25 02:04:56;;;;;;;;;;;;;;;;;;5022740;28;19921;-63
2023/06/25 02:07:21;;;;;;;;;;;;;;;;;;5031458;28;19929;-63
2023/06/25 02:09:47;;;;;;;;;;;;;;;;;;5032073;28;20101;-63
2023/06/25 02:12:13;;;;;;;;;;;;;;;;;;5032431;28;19922;-63
2023/06/25 02:14:39;;;;;;;;;;;;;;;;;;5027772;28;19925;-63
2023/06/25 02:17:05;;;;;;;;;;;;;;;;;;5030995;28;20571;-63
2023/06/25 02:19:31;;;;;;;;;;;;;;;;;;5031080;28;19933;-63
2023/06/25 02:21:57;;;;;;;;;;;;;;;;;;5030241;28;19932;-63
2023/06/25 02:24:23;;;;;;;;;;;;;;;;;;5033166;28;19925;-64
2023/06/25 02:26:49;;;;;;;;;;;;;;;;;;5032937;28;19929;-64
2023/06/25 02:29:15;;;;;;;;;;;;;;;;;;5032408;28;19925;-63
2023/06/25 02:31:41;;;;;;;;;;;;;;;;;;5033064;28;19933;-64
2023/06/25 02:34:07;;;;;;;;;;;;;;;;;;5033136;28;19956;-64
2023/06/25 02:36:32;;;;;;;;;;;;;;;;;;5033071;28;20011;-64
2023/06/25 02:38:58;;;;;;;;;;;;;;;;;;4998336;28;19967;-64
2023/06/25 02:41:24;;;;;;;;;;;;;;;;;;5031837;28;20375;-63
2023/06/25 02:43:50;;;;;;;;;;;;;;;;;;5031021;28;19960;-63
2023/06/25 02:46:16;;;;;;;;;;;;;;;;;;5031752;28;20413;-63
2023/06/25 02:48:42;;;;;;;;;;;;;;;;;;5019223;28;19926;-63
2023/06/25 02:51:09;;;;;;;;;;;;;;;;;;5012449;28;19976;-63
2023/06/25 02:53:35;;;;;;;;;;;;;;;;;;5012066;28;19961;-63
2023/06/25 02:56:01;;;;;;;;;;;;;;;;;;5023121;28;19972;-63
2023/06/25 02:58:26;;;;;;;;;;;;;;;;;;5031680;28;19982;-64
2023/06/25 03:00:52;;;;;;;;;;;;;;;;;;5028611;28;20020;-64
2023/06/25 03:03:18;;;;;;;;;;;;;;;;;;5029654;28;19921;-63
2023/06/25 03:05:44;;;;;;;;;;;;;;;;;;5031805;28;19932;-63
2023/06/25 03:08:10;;;;;;;;;;;;;;;;;;5032173;28;19928;-63
2023/06/25 03:10:39;;;;;;;;;;;;;;;;;;5032120;28;20286;-64
2023/06/25 03:13:05;;;;;;;;;;;;;;;;;;5031433;28;20472;-64
2023/06/25 03:15:31;;;;;;;;;;;;;;;;;;5013700;28;19929;-63
2023/06/25 03:17:57;;;;;;;;;;;;;;;;;;5030716;28;19961;-63
2023/06/25 03:20:22;;;;;;;;;;;;;;;;;;5013446;28;19921;-63
2023/06/25 03:22:49;;;;;;;;;;;;;;;;;;5029404;28;19935;-63
2023/06/25 03:25:15;;;;;;;;;;;;;;;;;;5012194;28;19921;-63
2023/06/25 03:27:41;;;;;;;;;;;;;;;;;;5031118;28;19921;-63
2023/06/25 03:30:06;;;;;;;;;;;;;;;;;;5013232;28;19921;-63
2023/06/25 03:32:32;;;;;;;;;;;;;;;;;;5014260;28;20413;-63
2023/06/25 03:34:59;;;;;;;;;;;;;;;;;;5013135;28;19921;-63
2023/06/25 03:37:25;;;;;;;;;;;;;;;;;;5031889;28;19921;-63
2023/06/25 03:39:50;;;;;;;;;;;;;;;;;;5032128;28;20397;-63
2023/06/25 03:42:16;;;;;;;;;;;;;;;;;;5031191;28;19936;-63
2023/06/25 03:44:42;;;;;;;;;;;;;;;;;;5030081;28;19921;-63
2023/06/25 03:47:08;;;;;;;;;;;;;;;;;;5031675;28;20271;-63
2023/06/25 03:49:34;;;;;;;;;;;;;;;;;;5013683;28;20299;-64
2023/06/25 03:52:00;;;;;;;;;;;;;;;;;;5027186;28;19932;-64
2023/06/25 03:54:26;;;;;;;;;;;;;;;;;;5031052;28;19961;-64
2023/06/25 03:56:52;;;;;;;;;;;;;;;;;;5031869;28;19925;-64
2023/06/25 03:59:17;;;;;;;;;;;;;;;;;;5031472;28;19921;-64
2023/06/25 04:01:43;;;;;;;;;;;;;;;;;;5031550;28;19925;-64
2023/06/25 04:04:09;;;;;;;;;;;;;;;;;;5031461;28;19936;-64
2023/06/25 04:06:35;;;;;;;;;;;;;;;;;;5031564;28;20379;-63
2023/06/25 04:09:01;;;;;;;;;;;;;;;;;;5030680;28;19928;-64
2023/06/25 04:11:27;;;;;;;;;;;;;;;;;;5031276;28;19932;-64
2023/06/25 04:13:53;;;;;;;;;;;;;;;;;;5031430;28;19921;-64
2023/06/25 04:16:19;;;;;;;;;;;;;;;;;;5013959;28;19921;-64
2023/06/25 04:18:45;;;;;;;;;;;;;;;;;;5031593;28;19971;-63
2023/06/25 04:21:10;;;;;;;;;;;;;;;;;;5031234;28;19968;-63
2023/06/25 04:23:36;;;;;;;;;;;;;;;;;;5030300;28;20296;-64
2023/06/25 04:26:02;;;;;;;;;;;;;;;;;;5012849;28;19925;-64
2023/06/25 04:28:28;;;;;;;;;;;;;;;;;;5024332;28;19991;-63
2023/06/25 04:30:54;;;;;;;;;;;;;;;;;;5011560;28;19925;-63
2023/06/25 04:33:20;;;;;;;;;;;;;;;;;;5031271;28;19922;-63
2023/06/25 04:35:46;;;;;;;;;;;;;;;;;;5031349;28;20282;-63
2023/06/25 04:38:12;;;;;;;;;;;;;;;;;;5031684;28;19971;-63
2023/06/25 04:40:37;;;;;;;;;;;;;;;;;;5016515;28;19925;-63
2023/06/25 04:43:03;;;;;;;;;;;;;;;;;;4999956;28;19932;-64
2023/06/25 04:45:29;;;;;;;;;;;;;;;;;;5032638;28;20000;-64
2023/06/25 04:47:55;;;;;;;;;;;;;;;;;;5031575;28;20019;-64
2023/06/25 04:50:21;;;;;;;;;;;;;;;;;;5031913;28;20295;-64
2023/06/25 04:52:47;;;;;;;;;;;;;;;;;;5034991;28;19932;-64
2023/06/25 04:55:13;;;;;;;;;;;;;;;;;;5034639;28;19921;-64
2023/06/25 04:57:39;;;;;;;;;;;;;;;;;;5034105;28;19928;-64
2023/06/25 05:00:05;;;;;;;;;;;;;;;;;;5032166;28;19925;-64
2023/06/25 05:02:31;;;;;;;;;;;;;;;;;;5016703;28;19983;-64
2023/06/25 05:04:57;;;;;;;;;;;;;;;;;;5031619;28;20400;-64
2023/06/25 05:07:23;;;;;;;;;;;;;;;;;;5014481;28;19925;-64
2023/06/25 05:09:49;;;;;;;;;;;;;;;;;;4979826;28;19925;-64
2023/06/25 05:12:14;;;;;;;;;;;;;;;;;;5031079;28;19921;-64
2023/06/25 05:14:40;;;;;;;;;;;;;;;;;;5032429;28;20448;-64
2023/06/25 05:17:06;;;;;;;;;;;;;;;;;;4999606;28;20022;-64
2023/06/25 05:19:32;;;;;;;;;;;;;;;;;;5034080;28;20059;-64
2023/06/25 05:21:58;;;;;;;;;;;;;;;;;;5033348;28;20379;-64
2023/06/25 05:24:24;;;;;;;;;;;;;;;;;;5015949;28;19925;-64
2023/06/25 05:26:50;;;;;;;;;;;;;;;;;;5032692;28;19921;-64
2023/06/25 05:29:16;;;;;;;;;;;;;;;;;;5012338;28;19926;-64
2023/06/25 05:31:42;;;;;;;;;;;;;;;;;;5024555;28;19956;-64
2023/06/25 05:34:07;;;;;;;;;;;;;;;;;;5026808;28;19921;-64
2023/06/25 05:36:33;;;;;;;;;;;;;;;;;;5024625;28;19921;-64
2023/06/25 05:38:59;;;;;;;;;;;;;;;;;;4999901;28;20003;-64
2023/06/25 05:41:25;;;;;;;;;;;;;;;;;;4995472;28;20016;-64
2023/06/25 05:43:51;;;;;;;;;;;;;;;;;;5015594;28;19925;-64
2023/06/25 05:46:17;;;;;;;;;;;;;;;;;;5029136;28;20636;-64
2023/06/25 05:48:43;;;;;;;;;;;;;;;;;;5024751;28;19965;-64
2023/06/25 05:51:09;;;;;;;;;;;;;;;;;;5022696;28;20008;-64
2023/06/25 05:53:35;;;;;;;;;;;;;;;;;;5005781;28;19921;-64
2023/06/25 05:56:01;;;;;;;;;;;;;;;;;;5013754;28;19980;-64
2023/06/25 05:58:27;;;;;;;;;;;;;;;;;;5020157;28;19929;-64
2023/06/25 06:00:53;;;;;;;;;;;;;;;;;;5033209;28;19928;-63
2023/06/25 06:03:18;;;;;;;;;;;;;;;;;;5032677;28;20437;-63
2023/06/25 06:05:44;;;;;;;;;;;;;;;;;;5033099;28;19925;-63
2023/06/25 06:08:10;;;;;;;;;;;;;;;;;;5031985;28;20353;-64
2023/06/25 06:10:36;;;;;;;;;;;;;;;;;;5014352;28;19925;-63
2023/06/25 06:13:02;;;;;;;;;;;;;;;;;;5015215;28;19944;-63
2023/06/25 06:15:28;;;;;;;;;;;;;;;;;;5014943;28;20011;-64
2023/06/25 06:17:54;;;;;;;;;;;;;;;;;;5033397;28;19932;-64
2023/06/25 06:20:20;;;;;;;;;;;;;;;;;;5032931;28;19925;-64
2023/06/25 06:22:46;;;;;;;;;;;;;;;;;;5032607;28;19934;-64
2023/06/25 06:25:11;;;;;;;;;;;;;;;;;;5032639;28;20018;-64
2023/06/25 06:27:37;;;;;;;;;;;;;;;;;;5031551;28;19972;-64
2023/06/25 06:30:03;;;;;;;;;;;;;;;;;;5032143;28;19947;-63
2023/06/25 06:32:29;;;;;;;;;;;;;;;;;;5032944;28;19927;-63
2023/06/25 06:34:55;;;;;;;;;;;;;;;;;;5032993;28;19921;-64
2023/06/25 06:37:21;;;;;;;;;;;;;;;;;;5032325;28;19925;-64
2023/06/25 06:39:47;;;;;;;;;;;;;;;;;;5030865;28;19933;-64
2023/06/25 06:42:13;;;;;;;;;;;;;;;;;;5014060;28;19921;-64
2023/06/25 06:44:39;;;;;;;;;;;;;;;;;;5010308;28;19921;-64
2023/06/25 06:47:04;;;;;;;;;;;;;;;;;;5012735;28;19951;-64
2023/06/25 06:49:30;;;;;;;;;;;;;;;;;;5014894;28;20008;-64
2023/06/25 06:51:56;;;;;;;;;;;;;;;;;;5032653;28;19967;-64
2023/06/25 06:54:22;;;;;;;;;;;;;;;;;;5032393;28;19921;-65
2023/06/25 06:56:48;;;;;;;;;;;;;;;;;;5031626;28;19928;-65
2023/06/25 06:59:14;;;;;;;;;;;;;;;;;;5029559;28;20435;-64
2023/06/25 07:01:40;;;;;;;;;;;;;;;;;;5029063;28;20004;-64
2023/06/25 07:04:06;;;;;;;;;;;;;;;;;;5029993;28;19956;-64
2023/06/25 07:06:32;;;;;;;;;;;;;;;;;;5030403;28;19998;-64
2023/06/25 07:08:58;;;;;;;;;;;;;;;;;;5027050;28;20321;-64
2023/06/25 07:11:24;;;;;;;;;;;;;;;;;;5022252;28;19921;-64
2023/06/25 07:13:50;;;;;;;;;;;;;;;;;;5023878;28;19967;-64
2023/06/25 07:16:16;;;;;;;;;;;;;;;;;;5028944;28;20449;-64
2023/06/25 07:18:43;;;;;;;;;;;;;;;;;;5021252;28;19936;-63
2023/06/25 07:21:09;;;;;;;;;;;;;;;;;;5030857;28;19929;-63
2023/06/25 07:23:35;;;;;;;;;;;;;;;;;;5032062;28;20243;-63
2023/06/25 07:26:01;;;;;;;;;;;;;;;;;;5031393;28;19932;-63
2023/06/25 07:28:27;;;;;;;;;;;;;;;;;;4996365;28;20373;-63
2023/06/25 07:30:54;;;;;;;;;;;;;;;;;;5027251;28;22434;-63
2023/06/25 07:33:20;;;;;;;;;;;;;;;;;;5029675;28;19928;-64
2023/06/25 07:35:46;;;;;;;;;;;;;;;;;;5029511;28;19956;-64
2023/06/25 07:38:12;;;;;;;;;;;;;;;;;;5037396;28;19925;-64
2023/06/25 07:40:38;;;;;;;;;;;;;;;;;;5029142;28;20286;-63
2023/06/25 07:43:04;;;;;;;;;;;;;;;;;;5030517;28;20008;-63
2023/06/25 07:45:30;;;;;;;;;;;;;;;;;;5030752;28;20015;-63
2023/06/25 07:47:56;;;;;;;;;;;;;;;;;;5026997;28;20306;-63
2023/06/25 07:50:22;;;;;;;;;;;;;;;;;;5032229;28;19925;-63
2023/06/25 07:52:47;;;;;;;;;;;;;;;;;;5030968;28;20066;-64
2023/06/25 07:55:13;;;;;;;;;;;;;;;;;;5012951;28;19925;-64
2023/06/25 07:57:39;;;;;;;;;;;;;;;;;;5012113;28;19921;-64
2023/06/25 08:00:05;;;;;;;;;;;;;;;;;;5011555;28;19921;-63
2023/06/25 08:02:31;;;;;;;;;;;;;;;;;;5029019;28;19933;-63
2023/06/25 08:04:57;;;;;;;;;;;;;;;;;;5024886;28;19964;-63
2023/06/25 08:07:23;;;;;;;;;;;;;;;;;;5024373;28;19967;-63
2023/06/25 08:09:49;;;;;;;;;;;;;;;;;;5027639;28;20020;-63
2023/06/25 08:12:16;;;;;;;;;;;;;;;;;;5032575;28;19928;-63
2023/06/25 08:14:42;;;;;;;;;;;;;;;;;;5015593;28;19933;-63
2023/06/25 08:17:07;;;;;;;;;;;;;;;;;;5032465;28;20367;-63
2023/06/25 08:19:33;;;;;;;;;;;;;;;;;;5032728;28;20003;-63
2023/06/25 08:21:59;;;;;;;;;;;;;;;;;;5029786;28;19955;-63
2023/06/25 08:24:25;;;;;;;;;;;;;;;;;;5040560;28;19925;-63
2023/06/25 08:26:51;;;;;;;;;;;;;;;;;;5034144;28;20359;-63
2023/06/25 08:29:17;;;;;;;;;;;;;;;;;;5037974;28;19921;-63
2023/06/25 08:31:43;;;;;;;;;;;;;;;;;;5034533;28;20397;-63
2023/06/25 08:34:09;;;;;;;;;;;;;;;;;;5034602;28;20004;-63
2023/06/25 08:36:36;;;;;;;;;;;;;;;;;;5033107;28;19921;-64
2023/06/25 08:39:02;;;;;;;;;;;;;;;;;;5011107;28;19953;-64
2023/06/25 08:41:28;;;;;;;;;;;;;;;;;;5016129;28;20330;-64
2023/06/25 08:43:54;;;;;;;;;;;;;;;;;;5034664;28;19987;-64
2023/06/25 08:46:20;;;;;;;;;;;;;;;;;;5034845;28;19932;-63
2023/06/25 08:48:45;;;;;;;;;;;;;;;;;;5030741;28;19921;-63
2023/06/25 08:51:11;;;;;;;;;;;;;;;;;;5017424;28;19972;-63
2023/06/25 08:53:37;;;;;;;;;;;;;;;;;;4998403;28;19928;-63
2023/06/25 08:56:03;;;;;;;;;;;;;;;;;;5022721;28;19932;-63
2023/06/25 08:58:31;;;;;;;;;;;;;;;;;;5014048;28;19983;-63
2023/06/25 09:00:57;;;;;;;;;;;;;;;;;;5030371;28;19925;-62
2023/06/25 09:03:22;;;;;;;;;;;;;;;;;;5027207;28;19979;-63
2023/06/25 09:05:48;;;;;;;;;;;;;;;;;;5032643;28;20294;-63
2023/06/25 09:08:14;;;;;;;;;;;;;;;;;;5014759;28;19996;-63
2023/06/25 09:10:40;;;;;;;;;;;;;;;;;;5031306;28;19925;-63
2023/06/25 09:13:07;;;;;;;;;;;;;;;;;;5034423;28;19925;-63
2023/06/25 09:15:33;;;;;;;;;;;;;;;;;;4997397;28;21422;-63
2023/06/25 09:17:59;;;;;;;;;;;;;;;;;;5031192;28;19925;-63
2023/06/25 09:20:24;;;;;;;;;;;;;;;;;;5033963;28;20016;-63
2023/06/25 09:22:50;;;;;;;;;;;;;;;;;;5026676;28;19932;-63
2023/06/25 09:25:16;;;;;;;;;;;;;;;;;;5033670;28;19922;-63
2023/06/25 09:27:43;;;;;;;;;;;;;;;;;;5033892;28;19933;-63
2023/06/25 09:30:09;;;;;;;;;;;;;;;;;;5034382;28;19925;-62
2023/06/25 09:32:35;;;;;;;;;;;;;;;;;;5033084;28;20248;-63
2023/06/25 09:35:01;;;;;;;;;;;;;;;;;;5013485;28;19925;-63
2023/06/25 09:37:27;;;;;;;;;;;;;;;;;;5013684;28;19932;-62
2023/06/25 09:39:52;;;;;;;;;;;;;;;;;;5020713;28;19956;-63
2023/06/25 09:42:18;;;;;;;;;;;;;;;;;;5031367;28;20359;-63
2023/06/25 09:44:44;;;;;;;;;;;;;;;;;;5032569;28;20023;-63
2023/06/25 09:47:10;;;;;;;;;;;;;;;;;;5014423;28;20523;-63
2023/06/25 09:49:36;;;;;;;;;;;;;;;;;;5028996;28;19929;-63
2023/06/25 09:52:02;;;;;;;;;;;;;;;;;;5012758;28;19936;-63
2023/06/25 09:54:28;;;;;;;;;;;;;;;;;;5030391;28;20657;-63
2023/06/25 09:56:54;;;;;;;;;;;;;;;;;;5030539;28;19925;-63
2023/06/25 09:59:20;;;;;;;;;;;;;;;;;;5031074;28;20334;-63
2023/06/25 10:01:45;;;;;;;;;;;;;;;;;;5031468;28;20414;-63
2023/06/25 10:04:11;;;;;;;;;;;;;;;;;;5015085;28;19936;-63
2023/06/25 10:06:37;;;;;;;;;;;;;;;;;;5032212;28;20309;-63
2023/06/25 10:09:03;;;;;;;;;;;;;;;;;;5031748;28;19996;-63
2023/06/25 10:11:29;;;;;;;;;;;;;;;;;;5030851;28;19940;-63
2023/06/25 10:13:56;;;;;;;;;;;;;;;;;;5015453;28;19921;-63
2023/06/25 10:16:22;;;;;;;;;;;;;;;;;;5031813;28;19979;-63
2023/06/25 10:18:48;;;;;;;;;;;;;;;;;;5032063;28;19921;-64
2023/06/25 10:21:14;;;;;;;;;;;;;;;;;;5030453;28;19936;-64
2023/06/25 10:23:40;;;;;;;;;;;;;;;;;;5030779;28;19929;-64
2023/06/25 10:26:06;;;;;;;;;;;;;;;;;;5032181;28;20290;-64
2023/06/25 10:28:32;;;;;;;;;;;;;;;;;;5030276;28;19952;-64
2023/06/25 10:30:59;;;;;;;;;;;;;;;;;;5029785;28;20185;-64
2023/06/25 10:33:25;;;;;;;;;;;;;;;;;;5030391;28;19921;-64
2023/06/25 10:35:51;;;;;;;;;;;;;;;;;;5028305;28;20015;-64
2023/06/25 10:38:17;;;;;;;;;;;;;;;;;;5032034;28;19921;-64
2023/06/25 10:40:43;;;;;;;;;;;;;;;;;;5030880;28;19976;-64
2023/06/25 10:43:09;;;;;;;;;;;;;;;;;;5030669;28;20355;-64
2023/06/25 10:45:35;;;;;;;;;;;;;;;;;;5016985;28;19925;-64
2023/06/25 10:48:01;;;;;;;;;;;;;;;;;;5013152;28;20011;-63
2023/06/25 10:50:27;;;;;;;;;;;;;;;;;;5027747;28;19994;-64
2023/06/25 10:52:53;;;;;;;;;;;;;;;;;;5010846;28;20386;-63
2023/06/25 10:55:19;;;;;;;;;;;;;;;;;;5031335;28;19925;-64
2023/06/25 10:57:52;;;;;;;;;;;;;;;;;;5066690;27;20379;-63
2023/06/25 11:00:18;;;;;;;;;;;;;;;;;;5065181;28;19928;-63
2023/06/25 11:02:44;;;;;;;;;;;;;;;;;;5049900;28;20024;-62
2023/06/25 11:05:11;;;;;;;;;;;;;;;;;;5035036;28;19921;-63
2023/06/25 11:07:37;;;;;;;;;;;;;;;;;;5079886;22;19935;-66
2023/06/25 11:10:03;;;;;;;;;;;;;;;;;;5086556;28;19925;-67
2023/06/25 11:12:29;;;;;;;;;;;;;;;;;;5089425;28;20357;-67
2023/06/25 11:14:55;;;;;;;;;;;;;;;;;;5083094;28;19925;-67
2023/06/25 11:17:21;;;;;;;;;;;;;;;;;;5086218;28;19982;-67
2023/06/25 11:19:47;;;;;;;;;;;;;;;;;;5087669;28;19928;-67
2023/06/25 11:22:14;;;;;;;;;;;;;;;;;;5090798;28;19946;-67
2023/06/25 11:24:40;;;;;;;;;;;;;;;;;;5084549;28;19920;-68
2023/06/25 11:27:06;;;;;;;;;;;;;;;;;;5080485;28;19988;-68
2023/06/25 11:29:32;;;;;;;;;;;;;;;;;;5091359;28;19928;-68
2023/06/25 11:31:58;;;;;;;;;;;;;;;;;;5089005;28;19973;-63
2023/06/25 11:34:24;;;;;;;;;;;;;;;;;;5091815;28;20385;-63
2023/06/25 11:36:50;;;;;;;;;;;;;;;;;;5072143;28;19936;-63
2023/06/25 11:39:15;;;;;;;;;;;;;;;;;;5098268;28;19969;-63
2023/06/25 11:41:41;;;;;;;;;;;;;;;;;;5080962;28;19972;-63
2023/06/25 11:44:07;;;;;;;;;;;;;;;;;;5090299;28;20002;-67
2023/06/25 11:46:33;;;;;;;;;;;;;;;;;;5091297;28;19928;-67
2023/06/25 11:48:59;;;;;;;;;;;;;;;;;;5088026;28;20298;-66
2023/06/25 11:51:25;;;;;;;;;;;;;;;;;;5083406;28;19925;-66
2023/06/25 11:53:51;;;;;;;;;;;;;;;;;;5068353;28;19974;-66
2023/06/25 11:56:17;;;;;;;;;;;;;;;;;;5078417;28;19921;-66
2023/06/25 11:58:43;;;;;;;;;;;;;;;;;;5057172;28;19967;-66
2023/06/25 12:01:10;;;;;;;;;;;;;;;;;;5085499;28;19942;-66
2023/06/25 12:03:36;;;;;;;;;;;;;;;;;;5072640;28;20010;-66
2023/06/25 12:06:02;;;;;;;;;;;;;;;;;;5088390;28;19999;-66
2023/06/25 12:08:28;;;;;;;;;;;;;;;;;;5075533;28;20026;-66
2023/06/25 12:10:54;;;;;;;;;;;;;;;;;;5068227;28;20388;-67
2023/06/25 12:13:20;;;;;;;;;;;;;;;;;;5052698;28;20428;-66
2023/06/25 12:15:46;;;;;;;;;;;;;;;;;;5068550;28;19927;-66
2023/06/25 12:18:12;;;;;;;;;;;;;;;;;;5073695;28;19928;-66
2023/06/25 12:20:38;;;;;;;;;;;;;;;;;;5074217;28;20477;-66
2023/06/25 12:23:04;;;;;;;;;;;;;;;;;;5039818;28;20015;-66
2023/06/25 12:25:30;;;;;;;;;;;;;;;;;;5071517;28;19942;-66
2023/06/25 12:27:56;;;;;;;;;;;;;;;;;;5073916;28;20554;-66
2023/06/25 12:30:22;;;;;;;;;;;;;;;;;;5061889;28;20009;-66
2023/06/25 12:32:48;;;;;;;;;;;;;;;;;;5052016;28;19966;-66
2023/06/25 12:35:14;;;;;;;;;;;;;;;;;;5068945;28;19960;-66
2023/06/25 12:37:40;;;;;;;;;;;;;;;;;;5068813;28;20063;-66
2023/06/25 12:40:06;;;;;;;;;;;;;;;;;;5087523;28;20384;-66
2023/06/25 12:42:31;;;;;;;;;;;;;;;;;;5068941;28;19969;-66
2023/06/25 12:44:57;;;;;;;;;;;;;;;;;;5056258;28;19999;-66
2023/06/25 12:47:23;;;;;;;;;;;;;;;;;;5070069;28;19927;-66
2023/06/25 12:49:49;;;;;;;;;;;;;;;;;;5054129;28;19924;-66
2023/06/25 12:52:15;;;;;;;;;;;;;;;;;;5070687;28;20062;-66
2023/06/25 12:54:41;;;;;;;;;;;;;;;;;;5073464;28;19924;-66
2023/06/25 12:57:07;;;;;;;;;;;;;;;;;;5071774;28;20658;-66
2023/06/25 12:59:33;;;;;;;;;;;;;;;;;;5071512;28;19952;-66
2023/06/25 13:01:59;;;;;;;;;;;;;;;;;;5068334;28;19927;-66
2023/06/25 13:04:25;;;;;;;;;;;;;;;;;;5071931;28;20549;-66
2023/06/25 13:06:51;;;;;;;;;;;;;;;;;;5073000;28;19927;-66
2023/06/25 13:09:17;;;;;;;;;;;;;;;;;;5052156;28;20281;-68
2023/06/25 13:11:42;;;;;;;;;;;;;;;;;;5071262;28;19921;-68
2023/06/25 13:14:08;;;;;;;;;;;;;;;;;;5038310;28;19948;-68
2023/06/25 13:16:34;;;;;;;;;;;;;;;;;;5067947;28;21291;-68
2023/06/25 13:19:00;;;;;;;;;;;;;;;;;;5052924;28;20024;-63
2023/06/25 13:21:26;;;;;;;;;;;;;;;;;;5068834;28;19920;-61
2023/06/25 13:23:52;;;;;;;;;;;;;;;;;;5060493;28;19971;-61
2023/06/25 13:26:18;;;;;;;;;;;;;;;;;;5051701;28;20495;-61
2023/06/25 13:28:44;;;;;;;;;;;;;;;;;;5053231;28;19924;-61
2023/06/25 13:31:10;;;;;;;;;;;;;;;;;;5073644;28;20292;-61
2023/06/25 13:33:36;;;;;;;;;;;;;;;;;;5060260;28;21210;-61
2023/06/25 13:36:01;;;;;;;;;;;;;;;;;;5070020;28;20035;-61
2023/06/25 13:38:27;;;;;;;;;;;;;;;;;;5050272;28;19935;-61
2023/06/25 13:40:53;;;;;;;;;;;;;;;;;;5065632;28;20385;-61
2023/06/25 13:43:19;;;;;;;;;;;;;;;;;;5071140;28;19946;-61
2023/06/25 13:45:45;;;;;;;;;;;;;;;;;;5072617;28;19924;-61
2023/06/25 13:48:11;;;;;;;;;;;;;;;;;;5055254;28;19943;-61
2023/06/25 13:50:37;;;;;;;;;;;;;;;;;;5068338;28;20448;-61
2023/06/25 13:53:03;;;;;;;;;;;;;;;;;;5061512;28;20288;-61
2023/06/25 13:55:29;;;;;;;;;;;;;;;;;;5052606;28;19927;-61
2023/06/25 13:57:55;;;;;;;;;;;;;;;;;;5070306;28;19928;-61
2023/06/25 14:00:21;;;;;;;;;;;;;;;;;;5048692;28;19958;-61
2023/06/25 14:02:46;;;;;;;;;;;;;;;;;;5049141;28;20031;-61
2023/06/25 14:05:12;;;;;;;;;;;;;;;;;;5072792;28;19928;-61
2023/06/25 14:07:38;;;;;;;;;;;;;;;;;;5058036;28;19924;-61
2023/06/25 14:10:04;;;;;;;;;;;;;;;;;;5071674;28;19924;-61
2023/06/25 14:12:30;;;;;;;;;;;;;;;;;;5072200;28;20550;-60
2023/06/25 14:14:56;;;;;;;;;;;;;;;;;;5071932;28;19921;-61
2023/06/25 14:17:22;;;;;;;;;;;;;;;;;;5053748;28;19929;-61
2023/06/25 14:19:48;;;;;;;;;;;;;;;;;;5032425;28;19929;-61
2023/06/25 14:22:14;;;;;;;;;;;;;;;;;;5068596;28;19986;-61
2023/06/25 14:24:39;;;;;;;;;;;;;;;;;;5071247;28;20400;-60
2023/06/25 14:27:05;;;;;;;;;;;;;;;;;;5071680;28;19928;-60
2023/06/25 14:29:31;;;;;;;;;;;;;;;;;;5070007;28;20289;-61
2023/06/25 14:31:57;;;;;;;;;;;;;;;;;;5070792;28;19924;-61
2023/06/25 14:34:23;;;;;;;;;;;;;;;;;;5070895;28;19952;-61
2023/06/25 14:36:49;;;;;;;;;;;;;;;;;;5070008;28;19924;-61
2023/06/25 14:39:15;;;;;;;;;;;;;;;;;;5066762;28;19970;-61
2023/06/25 14:41:41;;;;;;;;;;;;;;;;;;5049638;28;19930;-61
2023/06/25 14:44:07;;;;;;;;;;;;;;;;;;5069372;28;20282;-61
2023/06/25 14:46:32;;;;;;;;;;;;;;;;;;5070335;28;19924;-62
2023/06/25 14:48:58;;;;;;;;;;;;;;;;;;5069999;28;19981;-61
2023/06/25 14:51:24;;;;;;;;;;;;;;;;;;5064212;28;19928;-69
2023/06/25 14:53:50;;;;;;;;;;;;;;;;;;5068872;28;19920;-69
2023/06/25 14:56:16;;;;;;;;;;;;;;;;;;5070577;28;19990;-66
2023/06/25 14:58:42;;;;;;;;;;;;;;;;;;5048046;28;20028;-61
2023/06/25 15:01:08;;;;;;;;;;;;;;;;;;5049599;28;19921;-61
2023/06/25 15:03:34;;;;;;;;;;;;;;;;;;5050248;28;19928;-61
2023/06/25 15:06:00;;;;;;;;;;;;;;;;;;5061421;28;19943;-61
2023/06/25 15:08:27;;;;;;;;;;;;;;;;;;5044158;28;19971;-61
2023/06/25 15:10:53;;;;;;;;;;;;;;;;;;5049908;28;19978;-61
2023/06/25 15:13:19;;;;;;;;;;;;;;;;;;5064558;28;19924;-61
2023/06/25 15:15:44;;;;;;;;;;;;;;;;;;5063698;28;19927;-62
2023/06/25 15:18:10;;;;;;;;;;;;;;;;;;5052973;28;19924;-61
2023/06/25 15:20:36;;;;;;;;;;;;;;;;;;5035879;28;19928;-61
2023/06/25 15:23:02;;;;;;;;;;;;;;;;;;5067796;28;19929;-65
2023/06/25 15:25:28;;;;;;;;;;;;;;;;;;5070887;28;19927;-61
2023/06/25 15:27:55;;;;;;;;;;;;;;;;;;5070936;28;20428;-61
2023/06/25 15:30:22;;;;;;;;;;;;;;;;;;5071176;28;20420;-61
2023/06/25 15:32:47;;;;;;;;;;;;;;;;;;5070108;28;20478;-61
2023/06/25 15:35:13;;;;;;;;;;;;;;;;;;5071205;28;19920;-61
2023/06/25 15:37:39;;;;;;;;;;;;;;;;;;5070545;28;19925;-62
2023/06/25 15:40:05;;;;;;;;;;;;;;;;;;5045496;28;20285;-61
2023/06/25 15:42:31;;;;;;;;;;;;;;;;;;5051284;28;20007;-59
2023/06/25 15:44:57;;;;;;;;;;;;;;;;;;5074783;28;19927;-61
2023/06/25 15:47:23;;;;;;;;;;;;;;;;;;5071119;28;19932;-67
2023/06/25 15:49:49;;;;;;;;;;;;;;;;;;5039085;28;19920;-68
2023/06/25 15:52:15;;;;;;;;;;;;;;;;;;5074588;28;19927;-67
2023/06/25 15:54:40;;;;;;;;;;;;;;;;;;5068890;28;19973;-67
2023/06/25 15:57:06;;;;;;;;;;;;;;;;;;5061273;28;19931;-67
2023/06/25 15:59:32;;;;;;;;;;;;;;;;;;5072197;28;19935;-67
2023/06/25 16:01:58;;;;;;;;;;;;;;;;;;5055074;28;19920;-67
2023/06/25 16:04:24;;;;;;;;;;;;;;;;;;5077855;28;20331;-67
2023/06/25 16:06:52;;;;;;;;;;;;;;;;;;5074041;28;20099;-67
2023/06/25 16:09:18;;;;;;;;;;;;;;;;;;5071921;28;20370;-67
2023/06/25 16:11:44;;;;;;;;;;;;;;;;;;5072177;28;19927;-67
2023/06/25 16:14:10;;;;;;;;;;;;;;;;;;5072007;28;20386;-67
2023/06/25 16:16:36;;;;;;;;;;;;;;;;;;5072704;28;19944;-68
2023/06/25 16:19:02;;;;;;;;;;;;;;;;;;5069975;28;19932;-68
2023/06/25 16:21:28;;;;;;;;;;;;;;;;;;5053258;28;19927;-68
2023/06/25 16:23:54;;;;;;;;;;;;;;;;;;5071228;28;20278;-68
2023/06/25 16:26:19;;;;;;;;;;;;;;;;;;5056036;28;19920;-68
2023/06/25 16:28:45;;;;;;;;;;;;;;;;;;5073022;28;19924;-68
2023/06/25 16:31:11;;;;;;;;;;;;;;;;;;5067825;28;20409;-68
2023/06/25 16:33:37;;;;;;;;;;;;;;;;;;5073991;28;20003;-68
2023/06/25 16:36:03;;;;;;;;;;;;;;;;;;5069727;28;19978;-68